sensor_id;sensor_type;location;lat;lon;timestamp;P1;durP1;ratioP1;P2;durP2;ratioP2
9214;SDS011;4642;51.364;6.788;2022-11-20T00:01:11;19.70;;;11.47;;
9214;SDS011;4642;51.364;6.788;2022-11-20T00:03:45;18.43;;;11.73;;
9214;SDS011;4642;51.364;6.788;2022-11-20T00:06:12;15.27;;;10.50;;
9214;SDS011;4642;51.364;6.788;2022-11-20T00:08:39;18.17;;;11.10;;
9214;SDS011;4642;51.364;6.788;2022-11-20T00:11:06;15.80;;;11.07;;
9214;SDS011;4642;51.364;6.788;2022-11-20T00:13:33;16.13;;;11.10;;
9214;SDS011;4642;51.364;6.788;2022-11-20T00:16:00;18.13;;;12.00;;
9214;SDS011;4642;51.364;6.788;2022-11-20T00:18:27;17.10;;;10.60;;
9214;SDS011;4642;51.364;6.788;2022-11-20T00:20:53;17.30;;;11.00;;
9214;SDS011;4642;51.364;6.788;2022-11-20T00:23:24;19.83;;;10.57;;
9214;SDS011;4642;51.364;6.788;2022-11-20T00:25:50;16.83;;;10.67;;
9214;SDS011;4642;51.364;6.788;2022-11-20T00:28:15;21.73;;;11.20;;
9214;SDS011;4642;51.364;6.788;2022-11-20T00:30:41;15.77;;;11.03;;
9214;SDS011;4642;51.364;6.788;2022-11-20T00:33:06;16.93;;;10.27;;
9214;SDS011;4642;51.364;6.788;2022-11-20T00:35:32;17.87;;;11.40;;
9214;SDS011;4642;51.364;6.788;2022-11-20T00:37:57;17.47;;;10.77;;
9214;SDS011;4642;51.364;6.788;2022-11-20T00:40:23;17.63;;;10.80;;
9214;SDS011;4642;51.364;6.788;2022-11-20T00:42:48;18.30;;;11.37;;
9214;SDS011;4642;51.364;6.788;2022-11-20T00:45:14;18.33;;;10.63;;
9214;SDS011;4642;51.364;6.788;2022-11-20T00:47:39;17.37;;;11.90;;
9214;SDS011;4642;51.364;6.788;2022-11-20T00:50:05;15.90;;;10.47;;
9214;SDS011;4642;51.364;6.788;2022-11-20T00:52:31;16.53;;;10.83;;
9214;SDS011;4642;51.364;6.788;2022-11-20T00:54:56;16.00;;;10.67;;
9214;SDS011;4642;51.364;6.788;2022-11-20T00:57:22;17.70;;;11.17;;
9214;SDS011;4642;51.364;6.788;2022-11-20T00:59:47;15.33;;;10.07;;
9214;SDS011;4642;51.364;6.788;2022-11-20T01:02:13;17.47;;;11.43;;
9214;SDS011;4642;51.364;6.788;2022-11-20T01:04:40;17.80;;;11.40;;
9214;SDS011;4642;51.364;6.788;2022-11-20T01:07:05;19.60;;;12.13;;
9214;SDS011;4642;51.364;6.788;2022-11-20T01:09:31;20.50;;;11.57;;
9214;SDS011;4642;51.364;6.788;2022-11-20T01:11:56;17.57;;;10.37;;
9214;SDS011;4642;51.364;6.788;2022-11-20T01:14:22;16.77;;;10.73;;
9214;SDS011;4642;51.364;6.788;2022-11-20T01:16:48;16.73;;;10.83;;
9214;SDS011;4642;51.364;6.788;2022-11-20T01:19:16;19.77;;;10.63;;
9214;SDS011;4642;51.364;6.788;2022-11-20T01:21:45;13.87;;;10.17;;
9214;SDS011;4642;51.364;6.788;2022-11-20T01:24:13;17.03;;;10.93;;
9214;SDS011;4642;51.364;6.788;2022-11-20T01:26:40;15.77;;;10.63;;
9214;SDS011;4642;51.364;6.788;2022-11-20T01:29:10;15.33;;;10.67;;
9214;SDS011;4642;51.364;6.788;2022-11-20T01:31:39;15.77;;;11.33;;
9214;SDS011;4642;51.364;6.788;2022-11-20T01:34:12;19.73;;;12.40;;
9214;SDS011;4642;51.364;6.788;2022-11-20T01:36:39;16.87;;;10.67;;
9214;SDS011;4642;51.364;6.788;2022-11-20T01:39:07;16.63;;;11.27;;
9214;SDS011;4642;51.364;6.788;2022-11-20T01:41:37;19.13;;;11.47;;
9214;SDS011;4642;51.364;6.788;2022-11-20T01:44:22;19.17;;;11.40;;
9214;SDS011;4642;51.364;6.788;2022-11-20T01:47:13;21.33;;;11.00;;
9214;SDS011;4642;51.364;6.788;2022-11-20T01:49:44;18.80;;;11.50;;
9214;SDS011;4642;51.364;6.788;2022-11-20T01:52:16;15.77;;;11.03;;
9214;SDS011;4642;51.364;6.788;2022-11-20T01:54:56;16.37;;;10.57;;
9214;SDS011;4642;51.364;6.788;2022-11-20T01:57:26;15.00;;;10.43;;
9214;SDS011;4642;51.364;6.788;2022-11-20T01:59:56;16.43;;;10.53;;
9214;SDS011;4642;51.364;6.788;2022-11-20T02:02:26;21.77;;;11.73;;
9214;SDS011;4642;51.364;6.788;2022-11-20T02:04:52;20.30;;;10.77;;
9214;SDS011;4642;51.364;6.788;2022-11-20T02:07:22;16.07;;;11.40;;
9214;SDS011;4642;51.364;6.788;2022-11-20T02:09:48;17.73;;;10.50;;
9214;SDS011;4642;51.364;6.788;2022-11-20T02:12:14;16.93;;;11.00;;
9214;SDS011;4642;51.364;6.788;2022-11-20T02:14:59;13.73;;;10.13;;
9214;SDS011;4642;51.364;6.788;2022-11-20T02:17:25;20.10;;;11.53;;
9214;SDS011;4642;51.364;6.788;2022-11-20T02:19:51;16.33;;;11.27;;
9214;SDS011;4642;51.364;6.788;2022-11-20T02:22:19;18.23;;;10.43;;
9214;SDS011;4642;51.364;6.788;2022-11-20T02:24:54;16.13;;;10.40;;
9214;SDS011;4642;51.364;6.788;2022-11-20T02:27:20;18.93;;;11.37;;
9214;SDS011;4642;51.364;6.788;2022-11-20T02:29:52;15.33;;;10.13;;
9214;SDS011;4642;51.364;6.788;2022-11-20T02:32:22;16.30;;;11.57;;
9214;SDS011;4642;51.364;6.788;2022-11-20T02:35:51;16.70;;;9.90;;
9214;SDS011;4642;51.364;6.788;2022-11-20T02:37:53;16.77;;;10.33;;
9214;SDS011;4642;51.364;6.788;2022-11-20T02:40:19;15.27;;;10.93;;
9214;SDS011;4642;51.364;6.788;2022-11-20T02:42:45;14.70;;;10.07;;
9214;SDS011;4642;51.364;6.788;2022-11-20T02:45:11;15.10;;;10.40;;
9214;SDS011;4642;51.364;6.788;2022-11-20T02:47:36;16.73;;;10.27;;
9214;SDS011;4642;51.364;6.788;2022-11-20T02:50:02;15.77;;;10.03;;
9214;SDS011;4642;51.364;6.788;2022-11-20T02:52:29;16.47;;;10.67;;
9214;SDS011;4642;51.364;6.788;2022-11-20T02:54:55;14.97;;;9.77;;
9214;SDS011;4642;51.364;6.788;2022-11-20T02:57:20;13.20;;;9.73;;
9214;SDS011;4642;51.364;6.788;2022-11-20T02:59:46;19.33;;;10.43;;
9214;SDS011;4642;51.364;6.788;2022-11-20T03:02:11;13.03;;;9.10;;
9214;SDS011;4642;51.364;6.788;2022-11-20T03:04:37;12.43;;;9.47;;
9214;SDS011;4642;51.364;6.788;2022-11-20T03:07:03;16.03;;;9.63;;
9214;SDS011;4642;51.364;6.788;2022-11-20T03:09:29;15.17;;;10.07;;
9214;SDS011;4642;51.364;6.788;2022-11-20T03:11:54;15.40;;;10.33;;
9214;SDS011;4642;51.364;6.788;2022-11-20T03:14:20;16.17;;;10.00;;
9214;SDS011;4642;51.364;6.788;2022-11-20T03:16:45;16.30;;;9.87;;
9214;SDS011;4642;51.364;6.788;2022-11-20T03:19:12;17.83;;;10.60;;
9214;SDS011;4642;51.364;6.788;2022-11-20T03:21:38;18.43;;;11.00;;
9214;SDS011;4642;51.364;6.788;2022-11-20T03:24:04;14.20;;;10.53;;
9214;SDS011;4642;51.364;6.788;2022-11-20T03:26:30;15.37;;;10.33;;
9214;SDS011;4642;51.364;6.788;2022-11-20T03:28:57;15.03;;;10.83;;
9214;SDS011;4642;51.364;6.788;2022-11-20T03:31:25;18.43;;;10.70;;
9214;SDS011;4642;51.364;6.788;2022-11-20T03:33:52;14.47;;;10.33;;
9214;SDS011;4642;51.364;6.788;2022-11-20T03:36:18;13.80;;;9.57;;
9214;SDS011;4642;51.364;6.788;2022-11-20T03:38:45;17.70;;;11.00;;
9214;SDS011;4642;51.364;6.788;2022-11-20T03:41:13;17.37;;;10.60;;
9214;SDS011;4642;51.364;6.788;2022-11-20T03:43:40;16.03;;;9.23;;
9214;SDS011;4642;51.364;6.788;2022-11-20T03:46:06;17.30;;;11.13;;
9214;SDS011;4642;51.364;6.788;2022-11-20T03:48:32;19.33;;;11.07;;
9214;SDS011;4642;51.364;6.788;2022-11-20T03:51:08;15.83;;;10.50;;
9214;SDS011;4642;51.364;6.788;2022-11-20T03:53:35;16.13;;;11.03;;
9214;SDS011;4642;51.364;6.788;2022-11-20T03:59:35;16.20;;;10.67;;
9214;SDS011;4642;51.364;6.788;2022-11-20T04:02:00;16.20;;;10.90;;
9214;SDS011;4642;51.364;6.788;2022-11-20T04:04:26;15.60;;;10.93;;
9214;SDS011;4642;51.364;6.788;2022-11-20T04:06:51;19.10;;;11.23;;
9214;SDS011;4642;51.364;6.788;2022-11-20T04:09:17;16.60;;;10.87;;
9214;SDS011;4642;51.364;6.788;2022-11-20T04:11:42;17.53;;;11.43;;
9214;SDS011;4642;51.364;6.788;2022-11-20T04:14:12;17.73;;;11.17;;
9214;SDS011;4642;51.364;6.788;2022-11-20T04:16:39;17.57;;;11.00;;
9214;SDS011;4642;51.364;6.788;2022-11-20T04:19:06;15.70;;;10.50;;
9214;SDS011;4642;51.364;6.788;2022-11-20T04:21:35;13.70;;;10.20;;
9214;SDS011;4642;51.364;6.788;2022-11-20T04:24:01;16.93;;;11.13;;
9214;SDS011;4642;51.364;6.788;2022-11-20T04:26:27;18.47;;;11.17;;
9214;SDS011;4642;51.364;6.788;2022-11-20T04:28:53;15.90;;;11.03;;
9214;SDS011;4642;51.364;6.788;2022-11-20T04:31:21;17.97;;;10.63;;
9214;SDS011;4642;51.364;6.788;2022-11-20T04:34:01;18.43;;;11.03;;
9214;SDS011;4642;51.364;6.788;2022-11-20T04:36:29;15.33;;;11.17;;
9214;SDS011;4642;51.364;6.788;2022-11-20T04:38:55;19.77;;;12.33;;
9214;SDS011;4642;51.364;6.788;2022-11-20T04:41:23;19.20;;;12.23;;
9214;SDS011;4642;51.364;6.788;2022-11-20T04:43:51;19.97;;;12.77;;
9214;SDS011;4642;51.364;6.788;2022-11-20T04:46:23;19.80;;;11.77;;
9214;SDS011;4642;51.364;6.788;2022-11-20T04:48:50;21.30;;;12.20;;
9214;SDS011;4642;51.364;6.788;2022-11-20T04:51:15;17.07;;;12.33;;
9214;SDS011;4642;51.364;6.788;2022-11-20T04:53:41;23.33;;;13.33;;
9214;SDS011;4642;51.364;6.788;2022-11-20T04:56:07;16.87;;;11.50;;
9214;SDS011;4642;51.364;6.788;2022-11-20T04:58:34;20.13;;;12.90;;
9214;SDS011;4642;51.364;6.788;2022-11-20T05:01:01;24.10;;;13.67;;
9214;SDS011;4642;51.364;6.788;2022-11-20T05:03:31;17.33;;;10.47;;
9214;SDS011;4642;51.364;6.788;2022-11-20T05:05:59;20.67;;;12.13;;
9214;SDS011;4642;51.364;6.788;2022-11-20T05:08:26;16.37;;;10.47;;
9214;SDS011;4642;51.364;6.788;2022-11-20T05:10:51;14.10;;;10.00;;
9214;SDS011;4642;51.364;6.788;2022-11-20T05:13:17;18.50;;;11.47;;
9214;SDS011;4642;51.364;6.788;2022-11-20T05:15:42;16.27;;;10.67;;
9214;SDS011;4642;51.364;6.788;2022-11-20T05:18:08;16.83;;;11.83;;
9214;SDS011;4642;51.364;6.788;2022-11-20T05:20:33;14.73;;;10.67;;
9214;SDS011;4642;51.364;6.788;2022-11-20T05:23:01;20.03;;;12.70;;
9214;SDS011;4642;51.364;6.788;2022-11-20T05:25:26;17.03;;;11.93;;
9214;SDS011;4642;51.364;6.788;2022-11-20T05:27:52;20.10;;;12.23;;
9214;SDS011;4642;51.364;6.788;2022-11-20T05:30:18;17.00;;;11.73;;
9214;SDS011;4642;51.364;6.788;2022-11-20T05:32:43;17.10;;;11.37;;
9214;SDS011;4642;51.364;6.788;2022-11-20T05:35:09;14.63;;;10.70;;
9214;SDS011;4642;51.364;6.788;2022-11-20T05:37:35;16.03;;;10.40;;
9214;SDS011;4642;51.364;6.788;2022-11-20T05:40:00;16.03;;;10.20;;
9214;SDS011;4642;51.364;6.788;2022-11-20T05:42:26;14.93;;;10.10;;
9214;SDS011;4642;51.364;6.788;2022-11-20T05:44:57;15.93;;;9.97;;
9214;SDS011;4642;51.364;6.788;2022-11-20T05:47:30;15.20;;;10.43;;
9214;SDS011;4642;51.364;6.788;2022-11-20T05:49:57;18.27;;;10.47;;
9214;SDS011;4642;51.364;6.788;2022-11-20T05:52:23;16.13;;;10.97;;
9214;SDS011;4642;51.364;6.788;2022-11-20T05:54:48;15.23;;;10.43;;
9214;SDS011;4642;51.364;6.788;2022-11-20T05:57:14;15.20;;;9.83;;
9214;SDS011;4642;51.364;6.788;2022-11-20T05:59:39;15.57;;;11.07;;
9214;SDS011;4642;51.364;6.788;2022-11-20T06:02:05;14.67;;;9.73;;
9214;SDS011;4642;51.364;6.788;2022-11-20T06:04:30;16.97;;;10.13;;
9214;SDS011;4642;51.364;6.788;2022-11-20T06:06:56;16.20;;;10.33;;
9214;SDS011;4642;51.364;6.788;2022-11-20T06:09:21;17.30;;;10.33;;
9214;SDS011;4642;51.364;6.788;2022-11-20T06:11:47;14.47;;;11.03;;
9214;SDS011;4642;51.364;6.788;2022-11-20T06:14:12;16.53;;;10.80;;
9214;SDS011;4642;51.364;6.788;2022-11-20T06:16:38;15.40;;;10.83;;
9214;SDS011;4642;51.364;6.788;2022-11-20T06:19:03;15.40;;;10.60;;
9214;SDS011;4642;51.364;6.788;2022-11-20T06:21:29;16.70;;;10.90;;
9214;SDS011;4642;51.364;6.788;2022-11-20T06:23:54;15.70;;;11.00;;
9214;SDS011;4642;51.364;6.788;2022-11-20T06:26:21;18.10;;;11.33;;
9214;SDS011;4642;51.364;6.788;2022-11-20T06:28:49;15.50;;;10.83;;
9214;SDS011;4642;51.364;6.788;2022-11-20T06:31:16;16.77;;;10.47;;
9214;SDS011;4642;51.364;6.788;2022-11-20T06:33:43;14.67;;;10.63;;
9214;SDS011;4642;51.364;6.788;2022-11-20T06:36:10;17.37;;;10.57;;
9214;SDS011;4642;51.364;6.788;2022-11-20T06:38:37;16.87;;;10.97;;
9214;SDS011;4642;51.364;6.788;2022-11-20T06:41:04;15.07;;;10.83;;
9214;SDS011;4642;51.364;6.788;2022-11-20T06:43:31;16.67;;;11.17;;
9214;SDS011;4642;51.364;6.788;2022-11-20T06:45:57;19.60;;;11.63;;
9214;SDS011;4642;51.364;6.788;2022-11-20T06:48:23;18.10;;;11.90;;
9214;SDS011;4642;51.364;6.788;2022-11-20T06:50:53;17.30;;;11.73;;
9214;SDS011;4642;51.364;6.788;2022-11-20T06:53:19;18.73;;;11.80;;
9214;SDS011;4642;51.364;6.788;2022-11-20T06:55:45;14.90;;;10.77;;
9214;SDS011;4642;51.364;6.788;2022-11-20T06:58:12;16.67;;;11.93;;
9214;SDS011;4642;51.364;6.788;2022-11-20T07:00:38;27.50;;;10.83;;
9214;SDS011;4642;51.364;6.788;2022-11-20T07:03:04;17.43;;;10.73;;
9214;SDS011;4642;51.364;6.788;2022-11-20T07:05:31;17.27;;;11.77;;
9214;SDS011;4642;51.364;6.788;2022-11-20T07:07:57;16.33;;;11.13;;
9214;SDS011;4642;51.364;6.788;2022-11-20T07:10:23;17.77;;;11.33;;
9214;SDS011;4642;51.364;6.788;2022-11-20T07:12:49;17.83;;;12.50;;
9214;SDS011;4642;51.364;6.788;2022-11-20T07:15:16;18.90;;;12.67;;
9214;SDS011;4642;51.364;6.788;2022-11-20T07:17:42;16.90;;;11.90;;
9214;SDS011;4642;51.364;6.788;2022-11-20T07:20:08;18.77;;;12.63;;
9214;SDS011;4642;51.364;6.788;2022-11-20T07:22:34;17.63;;;12.17;;
9214;SDS011;4642;51.364;6.788;2022-11-20T07:24:59;19.33;;;12.30;;
9214;SDS011;4642;51.364;6.788;2022-11-20T07:27:25;18.60;;;12.80;;
9214;SDS011;4642;51.364;6.788;2022-11-20T07:29:51;21.23;;;12.50;;
9214;SDS011;4642;51.364;6.788;2022-11-20T07:32:16;17.57;;;12.27;;
9214;SDS011;4642;51.364;6.788;2022-11-20T07:34:42;19.43;;;12.70;;
9214;SDS011;4642;51.364;6.788;2022-11-20T07:37:07;19.07;;;12.70;;
9214;SDS011;4642;51.364;6.788;2022-11-20T07:39:33;17.70;;;12.43;;
9214;SDS011;4642;51.364;6.788;2022-11-20T07:41:58;23.20;;;13.57;;
9214;SDS011;4642;51.364;6.788;2022-11-20T07:44:24;23.67;;;13.03;;
9214;SDS011;4642;51.364;6.788;2022-11-20T07:46:49;20.83;;;14.20;;
9214;SDS011;4642;51.364;6.788;2022-11-20T07:49:15;24.23;;;12.90;;
9214;SDS011;4642;51.364;6.788;2022-11-20T07:51:40;20.67;;;12.97;;
9214;SDS011;4642;51.364;6.788;2022-11-20T07:54:06;22.57;;;13.70;;
9214;SDS011;4642;51.364;6.788;2022-11-20T07:56:31;21.17;;;13.33;;
9214;SDS011;4642;51.364;6.788;2022-11-20T07:58:57;19.57;;;13.10;;
9214;SDS011;4642;51.364;6.788;2022-11-20T08:01:22;21.50;;;13.20;;
9214;SDS011;4642;51.364;6.788;2022-11-20T08:03:48;21.40;;;13.87;;
9214;SDS011;4642;51.364;6.788;2022-11-20T08:06:13;22.50;;;14.40;;
9214;SDS011;4642;51.364;6.788;2022-11-20T08:08:39;26.87;;;15.10;;
9214;SDS011;4642;51.364;6.788;2022-11-20T08:11:05;21.13;;;13.93;;
9214;SDS011;4642;51.364;6.788;2022-11-20T08:13:50;25.53;;;14.50;;
9214;SDS011;4642;51.364;6.788;2022-11-20T08:16:34;21.30;;;13.77;;
9214;SDS011;4642;51.364;6.788;2022-11-20T08:18:59;21.47;;;13.77;;
9214;SDS011;4642;51.364;6.788;2022-11-20T08:21:25;26.57;;;14.23;;
9214;SDS011;4642;51.364;6.788;2022-11-20T08:23:50;19.37;;;13.57;;
9214;SDS011;4642;51.364;6.788;2022-11-20T08:26:16;20.87;;;13.43;;
9214;SDS011;4642;51.364;6.788;2022-11-20T08:28:41;19.83;;;13.33;;
9214;SDS011;4642;51.364;6.788;2022-11-20T08:31:07;21.87;;;13.53;;
9214;SDS011;4642;51.364;6.788;2022-11-20T08:33:35;21.20;;;13.87;;
9214;SDS011;4642;51.364;6.788;2022-11-20T08:36:01;21.30;;;13.30;;
9214;SDS011;4642;51.364;6.788;2022-11-20T08:38:28;22.47;;;13.83;;
9214;SDS011;4642;51.364;6.788;2022-11-20T08:41:00;21.43;;;13.50;;
9214;SDS011;4642;51.364;6.788;2022-11-20T08:43:46;18.53;;;12.37;;
9214;SDS011;4642;51.364;6.788;2022-11-20T08:46:12;21.17;;;12.23;;
9214;SDS011;4642;51.364;6.788;2022-11-20T08:48:38;24.30;;;15.73;;
9214;SDS011;4642;51.364;6.788;2022-11-20T08:51:03;19.77;;;15.37;;
9214;SDS011;4642;51.364;6.788;2022-11-20T08:53:29;25.57;;;16.80;;
9214;SDS011;4642;51.364;6.788;2022-11-20T08:55:56;23.23;;;15.83;;
9214;SDS011;4642;51.364;6.788;2022-11-20T08:58:22;26.40;;;16.60;;
9214;SDS011;4642;51.364;6.788;2022-11-20T09:00:47;23.33;;;15.87;;
9214;SDS011;4642;51.364;6.788;2022-11-20T09:03:13;22.20;;;15.00;;
9214;SDS011;4642;51.364;6.788;2022-11-20T09:05:38;21.93;;;14.73;;
9214;SDS011;4642;51.364;6.788;2022-11-20T09:08:04;27.90;;;17.20;;
9214;SDS011;4642;51.364;6.788;2022-11-20T09:10:30;23.50;;;15.30;;
9214;SDS011;4642;51.364;6.788;2022-11-20T09:12:55;21.37;;;14.63;;
9214;SDS011;4642;51.364;6.788;2022-11-20T09:15:21;20.70;;;14.57;;
9214;SDS011;4642;51.364;6.788;2022-11-20T09:17:57;27.67;;;14.07;;
9214;SDS011;4642;51.364;6.788;2022-11-20T09:20:24;22.83;;;14.00;;
9214;SDS011;4642;51.364;6.788;2022-11-20T09:22:50;23.03;;;14.13;;
9214;SDS011;4642;51.364;6.788;2022-11-20T09:25:16;24.43;;;14.50;;
9214;SDS011;4642;51.364;6.788;2022-11-20T09:27:42;21.30;;;13.87;;
9214;SDS011;4642;51.364;6.788;2022-11-20T09:30:10;23.10;;;15.03;;
9214;SDS011;4642;51.364;6.788;2022-11-20T09:32:38;21.40;;;13.30;;
9214;SDS011;4642;51.364;6.788;2022-11-20T09:35:04;23.17;;;14.83;;
9214;SDS011;4642;51.364;6.788;2022-11-20T09:37:29;21.47;;;14.07;;
9214;SDS011;4642;51.364;6.788;2022-11-20T09:39:55;19.67;;;13.03;;
9214;SDS011;4642;51.364;6.788;2022-11-20T09:42:30;21.80;;;13.33;;
9214;SDS011;4642;51.364;6.788;2022-11-20T09:47:46;20.67;;;14.20;;
9214;SDS011;4642;51.364;6.788;2022-11-20T09:55:42;22.53;;;14.07;;
9214;SDS011;4642;51.364;6.788;2022-11-20T09:58:22;19.97;;;13.73;;
9214;SDS011;4642;51.364;6.788;2022-11-20T10:00:54;20.90;;;13.47;;
9214;SDS011;4642;51.364;6.788;2022-11-20T10:04:17;19.20;;;13.20;;
9214;SDS011;4642;51.364;6.788;2022-11-20T10:06:31;21.17;;;13.63;;
9214;SDS011;4642;51.364;6.788;2022-11-20T10:09:25;20.63;;;12.07;;
9214;SDS011;4642;51.364;6.788;2022-11-20T10:14:49;20.30;;;12.53;;
9214;SDS011;4642;51.364;6.788;2022-11-20T10:17:42;18.77;;;12.33;;
9214;SDS011;4642;51.364;6.788;2022-11-20T10:20:23;18.57;;;12.30;;
9214;SDS011;4642;51.364;6.788;2022-11-20T10:23:16;19.50;;;12.43;;
9214;SDS011;4642;51.364;6.788;2022-11-20T10:28:34;19.90;;;12.63;;
9214;SDS011;4642;51.364;6.788;2022-11-20T10:31:14;18.20;;;11.67;;
9214;SDS011;4642;51.364;6.788;2022-11-20T10:33:51;16.67;;;11.87;;
9214;SDS011;4642;51.364;6.788;2022-11-20T10:36:21;17.73;;;11.70;;
9214;SDS011;4642;51.364;6.788;2022-11-20T10:38:53;18.07;;;11.57;;
9214;SDS011;4642;51.364;6.788;2022-11-20T10:41:24;16.23;;;11.40;;
9214;SDS011;4642;51.364;6.788;2022-11-20T10:46:39;15.50;;;10.87;;
9214;SDS011;4642;51.364;6.788;2022-11-20T10:49:13;16.50;;;11.10;;
9214;SDS011;4642;51.364;6.788;2022-11-20T10:51:48;16.70;;;11.30;;
9214;SDS011;4642;51.364;6.788;2022-11-20T10:57:52;17.27;;;11.10;;
9214;SDS011;4642;51.364;6.788;2022-11-20T11:00:30;16.70;;;11.17;;
9214;SDS011;4642;51.364;6.788;2022-11-20T11:02:56;16.47;;;11.13;;
9214;SDS011;4642;51.364;6.788;2022-11-20T11:05:40;15.37;;;10.77;;
9214;SDS011;4642;51.364;6.788;2022-11-20T11:08:14;16.90;;;11.00;;
9214;SDS011;4642;51.364;6.788;2022-11-20T11:10:51;18.77;;;11.30;;
9214;SDS011;4642;51.364;6.788;2022-11-20T11:13:22;17.30;;;11.10;;
9214;SDS011;4642;51.364;6.788;2022-11-20T11:15:52;17.47;;;11.33;;
9214;SDS011;4642;51.364;6.788;2022-11-20T11:18:25;16.50;;;10.83;;
9214;SDS011;4642;51.364;6.788;2022-11-20T11:20:55;18.17;;;11.47;;
9214;SDS011;4642;51.364;6.788;2022-11-20T11:23:43;21.33;;;12.47;;
9214;SDS011;4642;51.364;6.788;2022-11-20T11:26:21;18.50;;;12.47;;
9214;SDS011;4642;51.364;6.788;2022-11-20T11:29:01;19.63;;;11.90;;
9214;SDS011;4642;51.364;6.788;2022-11-20T11:31:29;19.60;;;12.80;;
9214;SDS011;4642;51.364;6.788;2022-11-20T11:36:38;20.00;;;12.13;;
9214;SDS011;4642;51.364;6.788;2022-11-20T11:39:04;19.23;;;12.80;;
9214;SDS011;4642;51.364;6.788;2022-11-20T11:41:34;18.17;;;11.43;;
9214;SDS011;4642;51.364;6.788;2022-11-20T11:44:13;17.43;;;11.70;;
9214;SDS011;4642;51.364;6.788;2022-11-20T11:47:01;17.87;;;11.87;;
9214;SDS011;4642;51.364;6.788;2022-11-20T11:49:29;19.37;;;12.27;;
9214;SDS011;4642;51.364;6.788;2022-11-20T11:52:05;15.30;;;10.17;;
9214;SDS011;4642;51.364;6.788;2022-11-20T11:54:58;17.80;;;12.17;;
9214;SDS011;4642;51.364;6.788;2022-11-20T12:00:12;21.13;;;11.73;;
9214;SDS011;4642;51.364;6.788;2022-11-20T12:05:16;16.50;;;11.67;;
9214;SDS011;4642;51.364;6.788;2022-11-20T12:07:43;19.77;;;12.50;;
9214;SDS011;4642;51.364;6.788;2022-11-20T12:13:04;19.07;;;11.80;;
9214;SDS011;4642;51.364;6.788;2022-11-20T12:15:35;19.17;;;11.53;;
9214;SDS011;4642;51.364;6.788;2022-11-20T12:18:04;18.57;;;12.10;;
9214;SDS011;4642;51.364;6.788;2022-11-20T12:20:41;21.17;;;11.03;;
9214;SDS011;4642;51.364;6.788;2022-11-20T12:23:35;19.77;;;12.73;;
9214;SDS011;4642;51.364;6.788;2022-11-20T12:29:29;20.30;;;12.80;;
9214;SDS011;4642;51.364;6.788;2022-11-20T12:37:33;17.87;;;12.07;;
9214;SDS011;4642;51.364;6.788;2022-11-20T12:40:32;17.73;;;11.53;;
9214;SDS011;4642;51.364;6.788;2022-11-20T12:43:22;19.37;;;10.97;;
9214;SDS011;4642;51.364;6.788;2022-11-20T12:46:22;15.93;;;10.07;;
9214;SDS011;4642;51.364;6.788;2022-11-20T12:51:48;18.60;;;11.87;;
9214;SDS011;4642;51.364;6.788;2022-11-20T13:00:08;16.73;;;10.57;;
9214;SDS011;4642;51.364;6.788;2022-11-20T13:03:03;17.53;;;11.07;;
9214;SDS011;4642;51.364;6.788;2022-11-20T13:06:23;17.70;;;11.43;;
9214;SDS011;4642;51.364;6.788;2022-11-20T13:08:55;17.93;;;11.70;;
9214;SDS011;4642;51.364;6.788;2022-11-20T13:11:30;16.77;;;11.33;;
9214;SDS011;4642;51.364;6.788;2022-11-20T13:16:56;18.03;;;11.27;;
9214;SDS011;4642;51.364;6.788;2022-11-20T13:19:26;19.70;;;12.70;;
9214;SDS011;4642;51.364;6.788;2022-11-20T13:21:53;21.93;;;13.03;;
9214;SDS011;4642;51.364;6.788;2022-11-20T13:26:44;20.37;;;12.33;;
9214;SDS011;4642;51.364;6.788;2022-11-20T13:29:17;19.37;;;12.20;;
9214;SDS011;4642;51.364;6.788;2022-11-20T13:31:44;19.77;;;12.10;;
9214;SDS011;4642;51.364;6.788;2022-11-20T13:34:12;20.83;;;12.77;;
9214;SDS011;4642;51.364;6.788;2022-11-20T13:36:51;22.10;;;12.73;;
9214;SDS011;4642;51.364;6.788;2022-11-20T13:39:28;21.33;;;13.93;;
9214;SDS011;4642;51.364;6.788;2022-11-20T13:44:48;20.87;;;13.73;;
9214;SDS011;4642;51.364;6.788;2022-11-20T13:47:22;22.73;;;13.63;;
9214;SDS011;4642;51.364;6.788;2022-11-20T13:49:49;20.90;;;12.83;;
9214;SDS011;4642;51.364;6.788;2022-11-20T13:52:39;22.43;;;13.57;;
9214;SDS011;4642;51.364;6.788;2022-11-20T13:55:19;23.73;;;14.47;;
9214;SDS011;4642;51.364;6.788;2022-11-20T14:00:41;32.27;;;15.33;;
9214;SDS011;4642;51.364;6.788;2022-11-20T14:03:13;22.93;;;13.80;;
9214;SDS011;4642;51.364;6.788;2022-11-20T14:06:32;23.23;;;14.10;;
9214;SDS011;4642;51.364;6.788;2022-11-20T14:08:52;24.13;;;14.43;;
9214;SDS011;4642;51.364;6.788;2022-11-20T14:11:18;23.40;;;14.60;;
9214;SDS011;4642;51.364;6.788;2022-11-20T14:13:56;20.43;;;13.40;;
9214;SDS011;4642;51.364;6.788;2022-11-20T14:16:42;21.47;;;13.63;;
9214;SDS011;4642;51.364;6.788;2022-11-20T14:19:20;24.20;;;14.37;;
9214;SDS011;4642;51.364;6.788;2022-11-20T14:24:41;22.37;;;14.97;;
9214;SDS011;4642;51.364;6.788;2022-11-20T14:27:14;23.60;;;14.33;;
9214;SDS011;4642;51.364;6.788;2022-11-20T14:29:45;18.67;;;13.43;;
9214;SDS011;4642;51.364;6.788;2022-11-20T14:32:17;21.47;;;13.50;;
9214;SDS011;4642;51.364;6.788;2022-11-20T14:34:45;23.23;;;14.37;;
9214;SDS011;4642;51.364;6.788;2022-11-20T14:37:13;24.60;;;14.00;;
9214;SDS011;4642;51.364;6.788;2022-11-20T14:39:48;21.97;;;14.17;;
9214;SDS011;4642;51.364;6.788;2022-11-20T14:42:19;23.87;;;14.57;;
9214;SDS011;4642;51.364;6.788;2022-11-20T14:44:47;25.77;;;15.50;;
9214;SDS011;4642;51.364;6.788;2022-11-20T14:47:15;28.17;;;15.87;;
9214;SDS011;4642;51.364;6.788;2022-11-20T14:49:45;26.60;;;15.07;;
9214;SDS011;4642;51.364;6.788;2022-11-20T14:52:16;26.43;;;15.13;;
9214;SDS011;4642;51.364;6.788;2022-11-20T14:54:44;24.33;;;14.37;;
9214;SDS011;4642;51.364;6.788;2022-11-20T14:57:30;26.50;;;13.90;;
9214;SDS011;4642;51.364;6.788;2022-11-20T15:00:17;27.13;;;15.77;;
9214;SDS011;4642;51.364;6.788;2022-11-20T15:02:46;28.47;;;15.80;;
9214;SDS011;4642;51.364;6.788;2022-11-20T15:05:13;27.43;;;15.67;;
9214;SDS011;4642;51.364;6.788;2022-11-20T15:07:40;30.73;;;16.23;;
9214;SDS011;4642;51.364;6.788;2022-11-20T15:12:53;25.47;;;15.43;;
9214;SDS011;4642;51.364;6.788;2022-11-20T15:15:36;30.23;;;15.53;;
9214;SDS011;4642;51.364;6.788;2022-11-20T15:18:04;24.37;;;14.80;;
9214;SDS011;4642;51.364;6.788;2022-11-20T15:20:31;29.70;;;16.40;;
9214;SDS011;4642;51.364;6.788;2022-11-20T15:22:58;28.83;;;16.80;;
9214;SDS011;4642;51.364;6.788;2022-11-20T15:25:24;29.37;;;16.30;;
9214;SDS011;4642;51.364;6.788;2022-11-20T15:27:52;30.13;;;15.47;;
9214;SDS011;4642;51.364;6.788;2022-11-20T15:30:22;28.47;;;17.33;;
9214;SDS011;4642;51.364;6.788;2022-11-20T15:32:48;28.17;;;16.60;;
9214;SDS011;4642;51.364;6.788;2022-11-20T15:35:14;29.83;;;16.83;;
9214;SDS011;4642;51.364;6.788;2022-11-20T15:37:40;27.27;;;16.90;;
9214;SDS011;4642;51.364;6.788;2022-11-20T15:40:06;29.00;;;16.37;;
9214;SDS011;4642;51.364;6.788;2022-11-20T15:42:33;29.67;;;15.70;;
9214;SDS011;4642;51.364;6.788;2022-11-20T15:44:59;28.90;;;15.90;;
9214;SDS011;4642;51.364;6.788;2022-11-20T15:47:26;27.33;;;15.97;;
9214;SDS011;4642;51.364;6.788;2022-11-20T15:49:56;31.67;;;17.27;;
9214;SDS011;4642;51.364;6.788;2022-11-20T15:52:21;31.47;;;17.00;;
9214;SDS011;4642;51.364;6.788;2022-11-20T15:54:47;32.67;;;18.57;;
9214;SDS011;4642;51.364;6.788;2022-11-20T15:57:13;33.70;;;17.63;;
9214;SDS011;4642;51.364;6.788;2022-11-20T15:59:39;23.10;;;14.50;;
9214;SDS011;4642;51.364;6.788;2022-11-20T16:02:13;24.87;;;13.93;;
9214;SDS011;4642;51.364;6.788;2022-11-20T16:04:39;24.27;;;14.30;;
9214;SDS011;4642;51.364;6.788;2022-11-20T16:07:05;25.00;;;14.83;;
9214;SDS011;4642;51.364;6.788;2022-11-20T16:09:31;26.23;;;14.67;;
9214;SDS011;4642;51.364;6.788;2022-11-20T16:11:57;26.00;;;14.50;;